sensor_id;sensor_type;location;lat;lon;timestamp;P1;durP1;ratioP1;P2;durP2;ratioP2
78120;SDS011;67585;44.802;10.332;2023-04-19T00:02:21;5.18;;;0.60;;
78120;SDS011;67585;44.802;10.332;2023-04-19T00:04:47;3.08;;;0.73;;
78120;SDS011;67585;44.802;10.332;2023-04-19T00:07:13;2.58;;;0.95;;
78120;SDS011;67585;44.802;10.332;2023-04-19T00:09:38;3.55;;;1.13;;
78120;SDS011;67585;44.802;10.332;2023-04-19T00:12:04;3.38;;;0.47;;
78120;SDS011;67585;44.802;10.332;2023-04-19T00:14:29;2.80;;;0.63;;
78120;SDS011;67585;44.802;10.332;2023-04-19T00:16:55;3.35;;;0.70;;
78120;SDS011;67585;44.802;10.332;2023-04-19T00:19:20;3.38;;;0.38;;
78120;SDS011;67585;44.802;10.332;2023-04-19T00:21:47;3.10;;;0.70;;
78120;SDS011;67585;44.802;10.332;2023-04-19T00:24:13;2.50;;;0.73;;
78120;SDS011;67585;44.802;10.332;2023-04-19T00:26:38;2.60;;;1.00;;
78120;SDS011;67585;44.802;10.332;2023-04-19T00:29:04;2.55;;;0.40;;
78120;SDS011;67585;44.802;10.332;2023-04-19T00:31:29;3.17;;;0.40;;
78120;SDS011;67585;44.802;10.332;2023-04-19T00:33:55;3.40;;;0.45;;
78120;SDS011;67585;44.802;10.332;2023-04-19T00:36:21;2.63;;;0.30;;
78120;SDS011;67585;44.802;10.332;2023-04-19T00:38:46;2.63;;;0.38;;
78120;SDS011;67585;44.802;10.332;2023-04-19T00:41:11;3.33;;;0.90;;
78120;SDS011;67585;44.802;10.332;2023-04-19T00:43:37;3.30;;;0.63;;
78120;SDS011;67585;44.802;10.332;2023-04-19T00:46:03;3.47;;;1.02;;
78120;SDS011;67585;44.802;10.332;2023-04-19T00:48:29;3.95;;;1.27;;
78120;SDS011;67585;44.802;10.332;2023-04-19T00:50:55;3.72;;;1.05;;
78120;SDS011;67585;44.802;10.332;2023-04-19T00:53:20;4.05;;;0.70;;
78120;SDS011;67585;44.802;10.332;2023-04-19T00:55:46;3.38;;;0.50;;
78120;SDS011;67585;44.802;10.332;2023-04-19T00:58:12;3.72;;;0.70;;
78120;SDS011;67585;44.802;10.332;2023-04-19T01:00:37;2.63;;;0.50;;
78120;SDS011;67585;44.802;10.332;2023-04-19T01:03:03;3.00;;;0.82;;
78120;SDS011;67585;44.802;10.332;2023-04-19T01:05:29;3.28;;;1.23;;
78120;SDS011;67585;44.802;10.332;2023-04-19T01:07:54;2.45;;;0.40;;
78120;SDS011;67585;44.802;10.332;2023-04-19T01:10:20;4.43;;;0.50;;
78120;SDS011;67585;44.802;10.332;2023-04-19T01:12:45;4.55;;;1.05;;
78120;SDS011;67585;44.802;10.332;2023-04-19T01:15:10;2.10;;;0.70;;
78120;SDS011;67585;44.802;10.332;2023-04-19T01:17:36;3.15;;;0.60;;
78120;SDS011;67585;44.802;10.332;2023-04-19T01:20:02;2.85;;;0.50;;
78120;SDS011;67585;44.802;10.332;2023-04-19T01:22:30;2.60;;;0.50;;
78120;SDS011;67585;44.802;10.332;2023-04-19T01:24:56;3.97;;;0.47;;
78120;SDS011;67585;44.802;10.332;2023-04-19T01:27:21;4.30;;;0.50;;
78120;SDS011;67585;44.802;10.332;2023-04-19T01:29:49;3.33;;;0.60;;
78120;SDS011;67585;44.802;10.332;2023-04-19T01:32:15;3.45;;;1.05;;
78120;SDS011;67585;44.802;10.332;2023-04-19T01:34:41;3.28;;;0.60;;
78120;SDS011;67585;44.802;10.332;2023-04-19T01:37:07;3.25;;;0.55;;
78120;SDS011;67585;44.802;10.332;2023-04-19T01:39:32;3.83;;;0.65;;
78120;SDS011;67585;44.802;10.332;2023-04-19T01:41:58;2.75;;;0.45;;
78120;SDS011;67585;44.802;10.332;2023-04-19T01:44:23;3.08;;;0.38;;
78120;SDS011;67585;44.802;10.332;2023-04-19T01:46:48;2.15;;;0.40;;
78120;SDS011;67585;44.802;10.332;2023-04-19T01:49:14;3.63;;;0.80;;
78120;SDS011;67585;44.802;10.332;2023-04-19T01:51:40;3.17;;;0.60;;
78120;SDS011;67585;44.802;10.332;2023-04-19T01:54:05;2.47;;;0.60;;
78120;SDS011;67585;44.802;10.332;2023-04-19T01:56:31;2.53;;;0.50;;
78120;SDS011;67585;44.802;10.332;2023-04-19T01:58:57;3.00;;;0.60;;
78120;SDS011;67585;44.802;10.332;2023-04-19T02:01:22;3.45;;;0.63;;
78120;SDS011;67585;44.802;10.332;2023-04-19T02:03:48;2.28;;;0.40;;
78120;SDS011;67585;44.802;10.332;2023-04-19T02:06:13;4.78;;;0.40;;
78120;SDS011;67585;44.802;10.332;2023-04-19T02:08:39;3.33;;;0.47;;
78120;SDS011;67585;44.802;10.332;2023-04-19T02:11:06;3.20;;;0.50;;
78120;SDS011;67585;44.802;10.332;2023-04-19T02:13:33;3.40;;;0.40;;
78120;SDS011;67585;44.802;10.332;2023-04-19T02:15:59;2.47;;;0.40;;
78120;SDS011;67585;44.802;10.332;2023-04-19T02:18:28;4.57;;;0.82;;
78120;SDS011;67585;44.802;10.332;2023-04-19T02:20:54;3.08;;;0.30;;
78120;SDS011;67585;44.802;10.332;2023-04-19T02:23:20;3.55;;;0.77;;
78120;SDS011;67585;44.802;10.332;2023-04-19T02:25:45;2.72;;;1.45;;
78120;SDS011;67585;44.802;10.332;2023-04-19T02:28:10;3.45;;;0.43;;
78120;SDS011;67585;44.802;10.332;2023-04-19T02:30:36;3.28;;;0.55;;
78120;SDS011;67585;44.802;10.332;2023-04-19T02:33:02;5.63;;;0.73;;
78120;SDS011;67585;44.802;10.332;2023-04-19T02:35:27;3.47;;;0.30;;
78120;SDS011;67585;44.802;10.332;2023-04-19T02:37:52;2.58;;;0.22;;
78120;SDS011;67585;44.802;10.332;2023-04-19T02:40:18;3.38;;;0.70;;
78120;SDS011;67585;44.802;10.332;2023-04-19T02:42:43;5.45;;;0.88;;
78120;SDS011;67585;44.802;10.332;2023-04-19T02:45:09;5.72;;;0.88;;
78120;SDS011;67585;44.802;10.332;2023-04-19T02:47:34;4.28;;;0.68;;
78120;SDS011;67585;44.802;10.332;2023-04-19T02:50:00;3.40;;;0.75;;
78120;SDS011;67585;44.802;10.332;2023-04-19T02:52:25;3.08;;;0.70;;
78120;SDS011;67585;44.802;10.332;2023-04-19T02:54:51;4.13;;;1.10;;
78120;SDS011;67585;44.802;10.332;2023-04-19T02:57:17;3.58;;;0.65;;
78120;SDS011;67585;44.802;10.332;2023-04-19T02:59:42;3.97;;;0.70;;
78120;SDS011;67585;44.802;10.332;2023-04-19T03:02:08;4.95;;;0.95;;
78120;SDS011;67585;44.802;10.332;2023-04-19T03:04:33;5.22;;;1.77;;
78120;SDS011;67585;44.802;10.332;2023-04-19T03:07:00;3.78;;;0.68;;
78120;SDS011;67585;44.802;10.332;2023-04-19T03:09:25;4.05;;;0.80;;
78120;SDS011;67585;44.802;10.332;2023-04-19T03:11:51;6.63;;;1.75;;
78120;SDS011;67585;44.802;10.332;2023-04-19T03:14:17;4.47;;;0.98;;
78120;SDS011;67585;44.802;10.332;2023-04-19T03:16:42;3.97;;;1.05;;
78120;SDS011;67585;44.802;10.332;2023-04-19T03:19:08;5.05;;;1.00;;
78120;SDS011;67585;44.802;10.332;2023-04-19T03:21:33;4.60;;;1.27;;
78120;SDS011;67585;44.802;10.332;2023-04-19T03:23:59;5.32;;;1.35;;
78120;SDS011;67585;44.802;10.332;2023-04-19T03:26:25;5.38;;;1.38;;
78120;SDS011;67585;44.802;10.332;2023-04-19T03:28:50;4.88;;;1.17;;
78120;SDS011;67585;44.802;10.332;2023-04-19T03:31:16;4.90;;;1.67;;
78120;SDS011;67585;44.802;10.332;2023-04-19T03:33:42;5.55;;;2.78;;
78120;SDS011;67585;44.802;10.332;2023-04-19T03:36:07;6.63;;;1.63;;
78120;SDS011;67585;44.802;10.332;2023-04-19T03:38:33;6.85;;;1.48;;
78120;SDS011;67585;44.802;10.332;2023-04-19T03:40:58;7.22;;;1.42;;
78120;SDS011;67585;44.802;10.332;2023-04-19T03:43:24;5.07;;;1.98;;
78120;SDS011;67585;44.802;10.332;2023-04-19T03:45:49;5.45;;;1.55;;
78120;SDS011;67585;44.802;10.332;2023-04-19T03:48:15;6.45;;;1.67;;
78120;SDS011;67585;44.802;10.332;2023-04-19T03:50:40;6.10;;;2.13;;
78120;SDS011;67585;44.802;10.332;2023-04-19T03:53:06;4.85;;;1.67;;
78120;SDS011;67585;44.802;10.332;2023-04-19T03:55:31;7.30;;;2.42;;
78120;SDS011;67585;44.802;10.332;2023-04-19T03:57:56;7.97;;;2.03;;
78120;SDS011;67585;44.802;10.332;2023-04-19T04:00:22;6.78;;;2.40;;
78120;SDS011;67585;44.802;10.332;2023-04-19T04:02:47;6.50;;;2.13;;
78120;SDS011;67585;44.802;10.332;2023-04-19T04:05:13;8.35;;;2.53;;
78120;SDS011;67585;44.802;10.332;2023-04-19T04:07:39;7.47;;;2.50;;
78120;SDS011;67585;44.802;10.332;2023-04-19T04:10:04;5.53;;;1.63;;
78120;SDS011;67585;44.802;10.332;2023-04-19T04:12:30;5.65;;;1.58;;
78120;SDS011;67585;44.802;10.332;2023-04-19T04:14:55;6.53;;;2.15;;
78120;SDS011;67585;44.802;10.332;2023-04-19T04:17:21;6.47;;;2.20;;
78120;SDS011;67585;44.802;10.332;2023-04-19T04:19:48;6.03;;;1.70;;
78120;SDS011;67585;44.802;10.332;2023-04-19T04:22:14;6.78;;;2.40;;
78120;SDS011;67585;44.802;10.332;2023-04-19T04:24:40;8.27;;;2.42;;
78120;SDS011;67585;44.802;10.332;2023-04-19T04:27:07;8.60;;;2.50;;
78120;SDS011;67585;44.802;10.332;2023-04-19T04:29:34;9.10;;;2.58;;
78120;SDS011;67585;44.802;10.332;2023-04-19T04:32:00;6.70;;;3.00;;
78120;SDS011;67585;44.802;10.332;2023-04-19T04:34:26;7.28;;;2.45;;
78120;SDS011;67585;44.802;10.332;2023-04-19T04:36:52;5.53;;;1.40;;
78120;SDS011;67585;44.802;10.332;2023-04-19T04:39:18;4.25;;;1.52;;
78120;SDS011;67585;44.802;10.332;2023-04-19T04:41:43;6.10;;;1.10;;
78120;SDS011;67585;44.802;10.332;2023-04-19T04:44:10;3.35;;;0.50;;
78120;SDS011;67585;44.802;10.332;2023-04-19T04:46:36;3.72;;;0.52;;
78120;SDS011;67585;44.802;10.332;2023-04-19T04:49:01;3.67;;;0.68;;
78120;SDS011;67585;44.802;10.332;2023-04-19T04:51:27;7.00;;;1.35;;
78120;SDS011;67585;44.802;10.332;2023-04-19T04:53:52;4.25;;;1.08;;
78120;SDS011;67585;44.802;10.332;2023-04-19T04:56:18;5.53;;;0.93;;
78120;SDS011;67585;44.802;10.332;2023-04-19T04:58:43;6.88;;;1.10;;
78120;SDS011;67585;44.802;10.332;2023-04-19T05:01:09;6.85;;;1.42;;
78120;SDS011;67585;44.802;10.332;2023-04-19T05:03:34;13.07;;;2.00;;
78120;SDS011;67585;44.802;10.332;2023-04-19T05:06:00;8.10;;;1.23;;
78120;SDS011;67585;44.802;10.332;2023-04-19T05:08:25;7.65;;;2.00;;
78120;SDS011;67585;44.802;10.332;2023-04-19T05:10:54;6.80;;;2.70;;
78120;SDS011;67585;44.802;10.332;2023-04-19T05:13:23;7.20;;;2.50;;
78120;SDS011;67585;44.802;10.332;2023-04-19T05:15:48;6.53;;;2.08;;
78120;SDS011;67585;44.802;10.332;2023-04-19T05:18:13;6.82;;;2.63;;
78120;SDS011;67585;44.802;10.332;2023-04-19T05:20:39;7.50;;;2.80;;
78120;SDS011;67585;44.802;10.332;2023-04-19T05:23:04;7.68;;;1.98;;
78120;SDS011;67585;44.802;10.332;2023-04-19T05:25:30;8.38;;;2.25;;
78120;SDS011;67585;44.802;10.332;2023-04-19T05:27:55;6.07;;;1.90;;
78120;SDS011;67585;44.802;10.332;2023-04-19T05:30:21;9.60;;;2.30;;
78120;SDS011;67585;44.802;10.332;2023-04-19T05:32:47;9.98;;;2.53;;
78120;SDS011;67585;44.802;10.332;2023-04-19T05:35:12;7.38;;;1.77;;
78120;SDS011;67585;44.802;10.332;2023-04-19T05:37:38;11.38;;;2.67;;
78120;SDS011;67585;44.802;10.332;2023-04-19T05:40:03;6.70;;;2.15;;
78120;SDS011;67585;44.802;10.332;2023-04-19T05:42:30;7.45;;;2.95;;
78120;SDS011;67585;44.802;10.332;2023-04-19T05:44:55;5.43;;;2.08;;
78120;SDS011;67585;44.802;10.332;2023-04-19T05:47:20;7.57;;;2.90;;
78120;SDS011;67585;44.802;10.332;2023-04-19T05:49:46;8.30;;;1.95;;
78120;SDS011;67585;44.802;10.332;2023-04-19T05:52:11;8.90;;;2.60;;
78120;SDS011;67585;44.802;10.332;2023-04-19T05:54:37;7.50;;;2.10;;
78120;SDS011;67585;44.802;10.332;2023-04-19T05:57:02;8.30;;;2.38;;
78120;SDS011;67585;44.802;10.332;2023-04-19T05:59:28;10.27;;;2.35;;
78120;SDS011;67585;44.802;10.332;2023-04-19T06:01:53;11.25;;;2.28;;
78120;SDS011;67585;44.802;10.332;2023-04-19T06:04:20;5.75;;;1.80;;
78120;SDS011;67585;44.802;10.332;2023-04-19T06:06:45;6.28;;;1.60;;
78120;SDS011;67585;44.802;10.332;2023-04-19T06:09:11;5.50;;;1.55;;
78120;SDS011;67585;44.802;10.332;2023-04-19T06:11:37;7.13;;;1.63;;
78120;SDS011;67585;44.802;10.332;2023-04-19T06:14:03;6.03;;;1.45;;
78120;SDS011;67585;44.802;10.332;2023-04-19T06:16:29;5.38;;;1.50;;
78120;SDS011;67585;44.802;10.332;2023-04-19T06:18:54;5.82;;;1.50;;
78120;SDS011;67585;44.802;10.332;2023-04-19T06:21:20;6.93;;;1.42;;
78120;SDS011;67585;44.802;10.332;2023-04-19T06:23:46;6.97;;;2.42;;
78120;SDS011;67585;44.802;10.332;2023-04-19T06:26:11;5.78;;;1.40;;
78120;SDS011;67585;44.802;10.332;2023-04-19T06:28:37;4.70;;;1.05;;
78120;SDS011;67585;44.802;10.332;2023-04-19T06:31:02;5.13;;;0.95;;
78120;SDS011;67585;44.802;10.332;2023-04-19T06:33:29;4.32;;;0.43;;
78120;SDS011;67585;44.802;10.332;2023-04-19T06:35:54;5.50;;;0.93;;
78120;SDS011;67585;44.802;10.332;2023-04-19T06:38:19;4.93;;;1.33;;
78120;SDS011;67585;44.802;10.332;2023-04-19T06:40:45;5.00;;;0.63;;
78120;SDS011;67585;44.802;10.332;2023-04-19T06:43:10;3.33;;;0.55;;
78120;SDS011;67585;44.802;10.332;2023-04-19T06:45:36;3.53;;;0.40;;
78120;SDS011;67585;44.802;10.332;2023-04-19T06:48:01;4.85;;;0.13;;
78120;SDS011;67585;44.802;10.332;2023-04-19T06:50:27;2.88;;;0.35;;
78120;SDS011;67585;44.802;10.332;2023-04-19T06:52:52;1.70;;;0.20;;
78120;SDS011;67585;44.802;10.332;2023-04-19T06:55:18;3.90;;;0.20;;
78120;SDS011;67585;44.802;10.332;2023-04-19T06:57:43;2.05;;;0.40;;
78120;SDS011;67585;44.802;10.332;2023-04-19T07:00:09;2.95;;;0.70;;
78120;SDS011;67585;44.802;10.332;2023-04-19T07:02:35;3.40;;;0.25;;
78120;SDS011;67585;44.802;10.332;2023-04-19T07:05:00;6.82;;;0.90;;
78120;SDS011;67585;44.802;10.332;2023-04-19T07:07:26;8.40;;;1.02;;
78120;SDS011;67585;44.802;10.332;2023-04-19T07:09:51;3.65;;;0.20;;
78120;SDS011;67585;44.802;10.332;2023-04-19T07:12:17;3.70;;;0.28;;
78120;SDS011;67585;44.802;10.332;2023-04-19T07:14:42;3.92;;;0.52;;
78120;SDS011;67585;44.802;10.332;2023-04-19T07:17:07;8.27;;;0.50;;
78120;SDS011;67585;44.802;10.332;2023-04-19T07:19:33;4.93;;;0.32;;
78120;SDS011;67585;44.802;10.332;2023-04-19T07:21:59;3.83;;;0.22;;
78120;SDS011;67585;44.802;10.332;2023-04-19T07:24:25;2.40;;;0.68;;
78120;SDS011;67585;44.802;10.332;2023-04-19T07:26:52;4.80;;;0.85;;
78120;SDS011;67585;44.802;10.332;2023-04-19T07:29:17;2.80;;;0.30;;
78120;SDS011;67585;44.802;10.332;2023-04-19T07:31:43;2.42;;;1.00;;
78120;SDS011;67585;44.802;10.332;2023-04-19T07:34:08;1.30;;;0.10;;
78120;SDS011;67585;44.802;10.332;2023-04-19T07:36:34;2.03;;;0.80;;
78120;SDS011;67585;44.802;10.332;2023-04-19T07:39:02;3.70;;;0.32;;
78120;SDS011;67585;44.802;10.332;2023-04-19T07:41:29;2.00;;;0.30;;
78120;SDS011;67585;44.802;10.332;2023-04-19T07:43:55;3.13;;;0.38;;
78120;SDS011;67585;44.802;10.332;2023-04-19T07:46:21;2.47;;;0.20;;
78120;SDS011;67585;44.802;10.332;2023-04-19T07:48:46;2.45;;;0.20;;
78120;SDS011;67585;44.802;10.332;2023-04-19T07:51:12;2.67;;;0.55;;
78120;SDS011;67585;44.802;10.332;2023-04-19T07:53:40;7.78;;;0.77;;
78120;SDS011;67585;44.802;10.332;2023-04-19T07:56:06;2.53;;;0.32;;
78120;SDS011;67585;44.802;10.332;2023-04-19T07:58:33;3.38;;;1.30;;
78120;SDS011;67585;44.802;10.332;2023-04-19T08:00:59;2.28;;;0.30;;
78120;SDS011;67585;44.802;10.332;2023-04-19T08:03:25;3.97;;;0.40;;
78120;SDS011;67585;44.802;10.332;2023-04-19T08:05:50;2.78;;;0.65;;
78120;SDS011;67585;44.802;10.332;2023-04-19T08:08:16;3.00;;;0.35;;
78120;SDS011;67585;44.802;10.332;2023-04-19T08:10:42;2.92;;;0.68;;
78120;SDS011;67585;44.802;10.332;2023-04-19T08:13:07;2.40;;;0.88;;
78120;SDS011;67585;44.802;10.332;2023-04-19T08:15:33;2.00;;;0.32;;
78120;SDS011;67585;44.802;10.332;2023-04-19T08:17:59;3.30;;;0.45;;
78120;SDS011;67585;44.802;10.332;2023-04-19T08:20:24;2.20;;;1.17;;
78120;SDS011;67585;44.802;10.332;2023-04-19T08:22:50;2.15;;;0.40;;
78120;SDS011;67585;44.802;10.332;2023-04-19T08:25:16;3.22;;;0.50;;
78120;SDS011;67585;44.802;10.332;2023-04-19T08:27:42;2.30;;;0.30;;
78120;SDS011;67585;44.802;10.332;2023-04-19T08:30:07;3.50;;;0.65;;
78120;SDS011;67585;44.802;10.332;2023-04-19T08:32:34;3.53;;;0.30;;
78120;SDS011;67585;44.802;10.332;2023-04-19T08:35:00;1.55;;;0.10;;
78120;SDS011;67585;44.802;10.332;2023-04-19T08:37:26;2.72;;;0.30;;
78120;SDS011;67585;44.802;10.332;2023-04-19T08:39:51;5.63;;;0.73;;
78120;SDS011;67585;44.802;10.332;2023-04-19T08:42:17;3.55;;;0.50;;
78120;SDS011;67585;44.802;10.332;2023-04-19T08:44:42;4.20;;;0.32;;
78120;SDS011;67585;44.802;10.332;2023-04-19T08:47:09;3.83;;;0.30;;
78120;SDS011;67585;44.802;10.332;2023-04-19T08:49:35;3.00;;;0.35;;
78120;SDS011;67585;44.802;10.332;2023-04-19T08:52:06;2.28;;;0.50;;
78120;SDS011;67585;44.802;10.332;2023-04-19T08:54:34;1.83;;;0.40;;
78120;SDS011;67585;44.802;10.332;2023-04-19T08:56:59;2.08;;;0.60;;
78120;SDS011;67585;44.802;10.332;2023-04-19T08:59:26;2.85;;;1.05;;
78120;SDS011;67585;44.802;10.332;2023-04-19T09:01:53;2.15;;;0.85;;
78120;SDS011;67585;44.802;10.332;2023-04-19T09:04:20;4.88;;;0.38;;
78120;SDS011;67585;44.802;10.332;2023-04-19T09:06:46;2.20;;;0.32;;
78120;SDS011;67585;44.802;10.332;2023-04-19T09:09:19;2.72;;;0.43;;
78120;SDS011;67585;44.802;10.332;2023-04-19T09:11:44;2.55;;;0.95;;
78120;SDS011;67585;44.802;10.332;2023-04-19T09:14:11;2.20;;;0.77;;
78120;SDS011;67585;44.802;10.332;2023-04-19T09:16:40;1.20;;;0.28;;
78120;SDS011;67585;44.802;10.332;2023-04-19T09:19:05;1.30;;;0.10;;
78120;SDS011;67585;44.802;10.332;2023-04-19T09:21:33;2.15;;;0.20;;
78120;SDS011;67585;44.802;10.332;2023-04-19T09:23:58;2.60;;;0.52;;
78120;SDS011;67585;44.802;10.332;2023-04-19T09:26:24;3.67;;;0.28;;
78120;SDS011;67585;44.802;10.332;2023-04-19T09:29:05;6.10;;;1.48;;
78120;SDS011;67585;44.802;10.332;2023-04-19T09:31:35;4.90;;;0.30;;
78120;SDS011;67585;44.802;10.332;2023-04-19T09:34:11;1.98;;;0.32;;
78120;SDS011;67585;44.802;10.332;2023-04-19T09:36:38;1.13;;;0.10;;
78120;SDS011;67585;44.802;10.332;2023-04-19T09:39:04;1.77;;;0.30;;
78120;SDS011;67585;44.802;10.332;2023-04-19T09:41:30;1.48;;;0.20;;
78120;SDS011;67585;44.802;10.332;2023-04-19T09:44:10;1.52;;;0.22;;
78120;SDS011;67585;44.802;10.332;2023-04-19T09:46:40;3.00;;;0.40;;
78120;SDS011;67585;44.802;10.332;2023-04-19T09:51:47;1.88;;;0.20;;
78120;SDS011;67585;44.802;10.332;2023-04-19T09:54:14;1.95;;;0.22;;
78120;SDS011;67585;44.802;10.332;2023-04-19T09:56:41;4.38;;;0.38;;
78120;SDS011;67585;44.802;10.332;2023-04-19T09:59:07;2.67;;;0.43;;
78120;SDS011;67585;44.802;10.332;2023-04-19T10:01:43;2.03;;;1.00;;
78120;SDS011;67585;44.802;10.332;2023-04-19T10:04:11;1.33;;;0.50;;
78120;SDS011;67585;44.802;10.332;2023-04-19T10:06:38;1.52;;;0.32;;
78120;SDS011;67585;44.802;10.332;2023-04-19T10:09:05;1.42;;;0.20;;
78120;SDS011;67585;44.802;10.332;2023-04-19T10:11:33;2.88;;;0.30;;
78120;SDS011;67585;44.802;10.332;2023-04-19T10:14:06;2.40;;;0.28;;
78120;SDS011;67585;44.802;10.332;2023-04-19T10:16:33;2.03;;;0.10;;
78120;SDS011;67585;44.802;10.332;2023-04-19T10:19:00;10.20;;;3.72;;
78120;SDS011;67585;44.802;10.332;2023-04-19T10:21:28;4.82;;;0.68;;
78120;SDS011;67585;44.802;10.332;2023-04-19T10:23:55;1.63;;;0.22;;
78120;SDS011;67585;44.802;10.332;2023-04-19T10:28:48;1.67;;;0.32;;
78120;SDS011;67585;44.802;10.332;2023-04-19T10:31:14;3.00;;;0.57;;
78120;SDS011;67585;44.802;10.332;2023-04-19T10:33:48;2.10;;;0.50;;
78120;SDS011;67585;44.802;10.332;2023-04-19T10:36:15;1.98;;;0.10;;
78120;SDS011;67585;44.802;10.332;2023-04-19T10:38:45;3.05;;;0.60;;
78120;SDS011;67585;44.802;10.332;2023-04-19T10:41:15;2.47;;;0.70;;
78120;SDS011;67585;44.802;10.332;2023-04-19T10:51:18;2.60;;;0.63;;
78120;SDS011;67585;44.802;10.332;2023-04-19T11:04:10;1.83;;;0.35;;
78120;SDS011;67585;44.802;10.332;2023-04-19T11:06:37;5.25;;;0.60;;
78120;SDS011;67585;44.802;10.332;2023-04-19T11:09:24;2.70;;;0.50;;
78120;SDS011;67585;44.802;10.332;2023-04-19T11:11:51;2.88;;;1.05;;
78120;SDS011;67585;44.802;10.332;2023-04-19T11:14:19;1.83;;;0.55;;
78120;SDS011;67585;44.802;10.332;2023-04-19T11:16:45;3.05;;;0.45;;
78120;SDS011;67585;44.802;10.332;2023-04-19T11:19:14;3.55;;;0.52;;
78120;SDS011;67585;44.802;10.332;2023-04-19T11:21:40;3.35;;;1.63;;
78120;SDS011;67585;44.802;10.332;2023-04-19T11:24:09;4.15;;;0.90;;
78120;SDS011;67585;44.802;10.332;2023-04-19T11:26:35;2.10;;;0.40;;
78120;SDS011;67585;44.802;10.332;2023-04-19T11:29:01;2.40;;;0.50;;
78120;SDS011;67585;44.802;10.332;2023-04-19T11:31:27;5.45;;;0.57;;
78120;SDS011;67585;44.802;10.332;2023-04-19T11:33:57;5.30;;;0.70;;
78120;SDS011;67585;44.802;10.332;2023-04-19T11:36:23;4.05;;;0.70;;
78120;SDS011;67585;44.802;10.332;2023-04-19T11:38:51;4.13;;;0.77;;
78120;SDS011;67585;44.802;10.332;2023-04-19T11:41:17;3.70;;;0.75;;
78120;SDS011;67585;44.802;10.332;2023-04-19T11:43:43;3.08;;;0.52;;
78120;SDS011;67585;44.802;10.332;2023-04-19T11:46:12;4.30;;;0.43;;
78120;SDS011;67585;44.802;10.332;2023-04-19T11:48:38;4.75;;;0.77;;
78120;SDS011;67585;44.802;10.332;2023-04-19T11:51:16;2.63;;;0.73;;
78120;SDS011;67585;44.802;10.332;2023-04-19T11:53:41;2.92;;;0.52;;
78120;SDS011;67585;44.802;10.332;2023-04-19T11:56:10;2.50;;;0.45;;
78120;SDS011;67585;44.802;10.332;2023-04-19T11:58:36;5.72;;;2.00;;
78120;SDS011;67585;44.802;10.332;2023-04-19T12:01:06;3.42;;;0.25;;
78120;SDS011;67585;44.802;10.332;2023-04-19T12:06:21;4.40;;;0.47;;
78120;SDS011;67585;44.802;10.332;2023-04-19T12:08:51;2.90;;;0.40;;
78120;SDS011;67585;44.802;10.332;2023-04-19T12:11:18;4.32;;;0.80;;
78120;SDS011;67585;44.802;10.332;2023-04-19T12:13:46;4.63;;;0.57;;
78120;SDS011;67585;44.802;10.332;2023-04-19T12:16:12;6.22;;;0.70;;
78120;SDS011;67585;44.802;10.332;2023-04-19T12:18:41;5.03;;;0.98;;
78120;SDS011;67585;44.802;10.332;2023-04-19T12:21:30;3.22;;;0.65;;
78120;SDS011;67585;44.802;10.332;2023-04-19T12:23:57;5.65;;;1.27;;
78120;SDS011;67585;44.802;10.332;2023-04-19T12:26:25;3.65;;;0.98;;
78120;SDS011;67585;44.802;10.332;2023-04-19T12:28:52;3.85;;;0.77;;
78120;SDS011;67585;44.802;10.332;2023-04-19T12:31:21;4.00;;;0.60;;
78120;SDS011;67585;44.802;10.332;2023-04-19T12:33:47;3.33;;;0.50;;
78120;SDS011;67585;44.802;10.332;2023-04-19T12:36:13;2.60;;;1.17;;
78120;SDS011;67585;44.802;10.332;2023-04-19T12:38:38;3.45;;;0.70;;
78120;SDS011;67585;44.802;10.332;2023-04-19T12:41:04;3.13;;;1.80;;
78120;SDS011;67585;44.802;10.332;2023-04-19T12:43:30;4.82;;;1.45;;
78120;SDS011;67585;44.802;10.332;2023-04-19T12:45:56;3.50;;;0.75;;
78120;SDS011;67585;44.802;10.332;2023-04-19T12:48:22;3.83;;;1.60;;
78120;SDS011;67585;44.802;10.332;2023-04-19T12:50:48;4.25;;;1.15;;
78120;SDS011;67585;44.802;10.332;2023-04-19T12:53:13;3.40;;;1.05;;
78120;SDS011;67585;44.802;10.332;2023-04-19T12:55:39;4.28;;;1.40;;
78120;SDS011;67585;44.802;10.332;2023-04-19T12:58:05;3.63;;;0.77;;
78120;SDS011;67585;44.802;10.332;2023-04-19T13:00:30;3.17;;;1.65;;
78120;SDS011;67585;44.802;10.332;2023-04-19T13:02:56;2.28;;;0.43;;
78120;SDS011;67585;44.802;10.332;2023-04-19T13:05:21;3.83;;;0.52;;
78120;SDS011;67585;44.802;10.332;2023-04-19T13:07:47;3.42;;;0.70;;
78120;SDS011;67585;44.802;10.332;2023-04-19T13:10:12;4.13;;;0.52;;
78120;SDS011;67585;44.802;10.332;2023-04-19T13:12:38;5.88;;;0.60;;
78120;SDS011;67585;44.802;10.332;2023-04-19T13:15:03;3.00;;;0.50;;
78120;SDS011;67585;44.802;10.332;2023-04-19T13:17:29;2.90;;;0.63;;
78120;SDS011;67585;44.802;10.332;2023-04-19T13:19:55;2.83;;;0.50;;
78120;SDS011;67585;44.802;10.332;2023-04-19T13:22:23;6.38;;;0.75;;
78120;SDS011;67585;44.802;10.332;2023-04-19T13:24:48;4.28;;;0.70;;
78120;SDS011;67585;44.802;10.332;2023-04-19T13:27:14;4.82;;;0.65;;
78120;SDS011;67585;44.802;10.332;2023-04-19T13:29:40;4.25;;;0.60;;
78120;SDS011;67585;44.802;10.332;2023-04-19T13:32:05;3.75;;;1.08;;
78120;SDS011;67585;44.802;10.332;2023-04-19T13:34:31;3.08;;;0.40;;
78120;SDS011;67585;44.802;10.332;2023-04-19T13:36:57;3.58;;;1.15;;
78120;SDS011;67585;44.802;10.332;2023-04-19T13:39:23;2.88;;;0.20;;
78120;SDS011;67585;44.802;10.332;2023-04-19T13:41:49;2.55;;;0.43;;
78120;SDS011;67585;44.802;10.332;2023-04-19T13:44:14;3.55;;;0.40;;
78120;SDS011;67585;44.802;10.332;2023-04-19T13:46:39;2.10;;;0.22;;
78120;SDS011;67585;44.802;10.332;2023-04-19T13:49:05;3.17;;;0.85;;
78120;SDS011;67585;44.802;10.332;2023-04-19T13:51:30;3.17;;;0.70;;
78120;SDS011;67585;44.802;10.332;2023-04-19T13:53:56;2.40;;;0.22;;
78120;SDS011;67585;44.802;10.332;2023-04-19T13:56:21;4.38;;;0.32;;
78120;SDS011;67585;44.802;10.332;2023-04-19T13:58:46;2.78;;;0.32;;
78120;SDS011;67585;44.802;10.332;2023-04-19T14:01:12;3.53;;;0.90;;
78120;SDS011;67585;44.802;10.332;2023-04-19T14:03:37;2.97;;;0.75;;
78120;SDS011;67585;44.802;10.332;2023-04-19T14:06:03;2.95;;;0.13;;
78120;SDS011;67585;44.802;10.332;2023-04-19T14:08:28;2.05;;;0.38;;
78120;SDS011;67585;44.802;10.332;2023-04-19T14:10:54;1.83;;;0.30;;
78120;SDS011;67585;44.802;10.332;2023-04-19T14:13:20;1.73;;;0.22;;
78120;SDS011;67585;44.802;10.332;2023-04-19T14:15:45;2.38;;;0.73;;
78120;SDS011;67585;44.802;10.332;2023-04-19T14:18:10;3.10;;;0.20;;
78120;SDS011;67585;44.802;10.332;2023-04-19T14:20:36;5.20;;;0.40;;
78120;SDS011;67585;44.802;10.332;2023-04-19T14:23:01;3.38;;;0.20;;
78120;SDS011;67585;44.802;10.332;2023-04-19T14:25:27;1.70;;;0.22;;
78120;SDS011;67585;44.802;10.332;2023-04-19T14:27:53;3.55;;;0.43;;
78120;SDS011;67585;44.802;10.332;2023-04-19T14:30:18;2.65;;;0.20;;
78120;SDS011;67585;44.802;10.332;2023-04-19T14:32:44;2.15;;;0.30;;
78120;SDS011;67585;44.802;10.332;2023-04-19T14:35:09;5.40;;;0.93;;
78120;SDS011;67585;44.802;10.332;2023-04-19T14:37:36;5.55;;;1.35;;
78120;SDS011;67585;44.802;10.332;2023-04-19T14:40:02;2.97;;;0.40;;
78120;SDS011;67585;44.802;10.332;2023-04-19T14:42:28;2.95;;;0.25;;
78120;SDS011;67585;44.802;10.332;2023-04-19T14:44:53;2.17;;;0.30;;
78120;SDS011;67585;44.802;10.332;2023-04-19T14:47:19;1.73;;;0.10;;
78120;SDS011;67585;44.802;10.332;2023-04-19T14:49:45;1.50;;;0.38;;
78120;SDS011;67585;44.802;10.332;2023-04-19T14:52:10;3.13;;;0.73;;
78120;SDS011;67585;44.802;10.332;2023-04-19T14:54:36;2.20;;;0.20;;